Arthur, Canada
Current Conditions -  °F | °C
As of 5:00 PM on Saturday 25 Oct 2014 (Local Time) from CYKF Reporting Station
Scattered Clouds Scattered Clouds  
Wind Chill: 59°   Ceiling: Unl
Heat Index: 59°   Visibility: 9mi
Dew Point: 43°   Wind: 21mph
Humidity: 55%   Direction: 270°W
Pressure: 29.64"   Gusts: 30mph
Location:  43.83°N, 80.53°W
Report Text: CYKF 252100Z AUTO 27018G26KT 9SM SCT044 15/06 A2964 RMK SLP038 DENSITY ALT 1600FT
Loading
Personal Weather Stations






























Interactive Weather Map
Tropical Storm Tracking
New forecast layout! Learn more

10-Day Weather Forecast

Advertisements
Track Severe Weather on mobile